Terminal Aerodrome Forecast
Issued by NWS

Home | Current Version | Previous Version | Text Only | Print | Product List | Glossary On
Versions: 1 2 3 4 5 6 7 8 9 10 11 12 13 14 15 16 17 18 19 20 21 22 23 24 25 26 27
000
FTUS45 KGGW 302300
TAFGDV
TAF
KGDV 302327Z 0100/0124 35009KT P6SM -RA BKN025 OVC035
     FM010230 30016KT P6SM -RA BKN015 OVC020
     FM011200 29016KT P6SM -SHRA OVC025
      AMD LTD TO CLD VIS AND WIND=

USA.gov is the U.S. government's official web portal to all federal, state and local government web resources and services.